Station Historical Data
Daily Summary for February 8, 2017 Units:  English    Metric   Both
Next Day »
Daily Weekly Monthly Yearly Custom
  High: Low: Average:
Temperature: 55.1 °F 52.0 °F 54 °F
Dew Point: 54.7 °F 51.5 °F 53.6 °F
Humidity: 99% 98% 99%
Wind Speed: 22.0mph 0.0mph 6.3mph
Wind Gust: 26.0mph - -
Wind- - South
Pressure: 30.16 in 30.07 in -
Precipitation: 0.00 in    
Historical Graphs
 
 
Tabular Data for February 8, 2017
Time Temperature Dew Point Pressure Wind Wind Speed Wind Gust Humidity Rainfall Rate (Hourly) solar Conditions
00:04 52.0 °F 51.5 °F 30.13 in South 2.0 mph 12.0 mph 98% 0.00 in 0.00 W/m2
00:09 52.1 °F 51.5 °F 30.13 in Calm   12.0 mph 98% 0.00 in 0.00 W/m2
00:14 52.1 °F 51.5 °F 30.13 in SW 9.0 mph 11.0 mph 98% 0.00 in 0.00 W/m2
00:19 52.2 °F 51.7 °F 30.13 in Calm   11.0 mph 98% 0.00 in 0.00 W/m2
00:24 52.3 °F 51.8 °F 30.13 in SSW 5.0 mph 9.0 mph 98% 0.00 in 0.00 W/m2
00:29 52.3 °F 51.8 °F 30.13 in Calm   11.0 mph 98% 0.00 in 0.00 W/m2
00:34 52.4 °F 51.8 °F 30.13 in South 11.0 mph 15.0 mph 98% 0.00 in 0.00 W/m2
00:39 52.5 °F 52.0 °F 30.13 in South 4.0 mph 13.0 mph 98% 0.56 in 0.00 W/m2
00:44 52.5 °F 52.0 °F 30.13 in South 4.0 mph 11.0 mph 98% 0.18 in 0.00 W/m2
00:49 52.6 °F 52.0 °F 30.13 in SSW 6.0 mph 10.0 mph 98% 0.31 in 0.00 W/m2
00:54 52.6 °F 52.0 °F 30.13 in South 3.0 mph 14.0 mph 98% 0.12 in 0.00 W/m2
00:59 52.7 °F 52.2 °F 30.13 in South 10.0 mph 12.0 mph 98% 0.33 in 0.00 W/m2
01:04 52.8 °F 52.2 °F 30.12 in South 8.0 mph 12.0 mph 98% 0.35 in 0.00 W/m2
01:09 52.8 °F 52.2 °F 30.12 in SW 9.0 mph 15.0 mph 98% 0.26 in 0.00 W/m2
01:14 52.8 °F 52.2 °F 30.12 in SW 5.0 mph 16.0 mph 98% 0.19 in 0.00 W/m2
01:19 52.9 °F 52.3 °F 30.12 in SSW 18.0 mph 18.0 mph 98% 0.10 in 0.00 W/m2
01:24 53.0 °F 52.5 °F 30.12 in South 7.0 mph 20.0 mph 98% 0.06 in 0.00 W/m2
01:29 53.0 °F 52.5 °F 30.12 in SSW 7.0 mph 18.0 mph 98% 0.04 in 0.00 W/m2
01:34 53.0 °F 52.7 °F 30.12 in South 13.0 mph 14.0 mph 99% 0.00 in 0.00 W/m2
01:39 53.0 °F 52.7 °F 30.12 in SSE 8.0 mph 15.0 mph 99% 0.00 in 0.00 W/m2
01:44 53.0 °F 52.7 °F 30.12 in South 6.0 mph 13.0 mph 99% 0.00 in 0.00 W/m2
01:49 53.0 °F 52.7 °F 30.11 in South 5.0 mph 13.0 mph 99% 0.50 in 0.00 W/m2
01:54 53.0 °F 52.7 °F 30.11 in SSW 8.0 mph 14.0 mph 99% 0.39 in 0.00 W/m2
01:59 53.0 °F 52.7 °F 30.11 in SSW 15.0 mph 15.0 mph 99% 0.20 in 0.00 W/m2
02:04 53.0 °F 52.7 °F 30.11 in SSW 14.0 mph 14.0 mph 99% 0.14 in 0.00 W/m2
02:09 53.0 °F 52.7 °F 30.11 in South 7.0 mph 18.0 mph 99% 0.07 in 0.00 W/m2
02:14 53.1 °F 52.8 °F 30.11 in SSE 8.0 mph 19.0 mph 99% 0.04 in 0.00 W/m2
02:19 53.1 °F 52.8 °F 30.11 in Calm   16.0 mph 99% 0.00 in 0.00 W/m2
02:24 53.0 °F 52.7 °F 30.11 in South 5.0 mph 17.0 mph 99% 0.00 in 0.00 W/m2
02:29 53.1 °F 52.8 °F 30.11 in Calm   13.0 mph 99% 0.00 in 0.00 W/m2
02:34 53.1 °F 52.8 °F 30.11 in South 8.0 mph 9.0 mph 99% 0.00 in 0.00 W/m2
02:39 53.1 °F 52.8 °F 30.11 in SSE 8.0 mph 13.0 mph 99% 0.04 in 0.00 W/m2
02:44 53.0 °F 52.7 °F 30.11 in SSE 9.0 mph 16.0 mph 99% 0.04 in 0.00 W/m2
02:49 53.1 °F 52.8 °F 30.11 in SSW 10.0 mph 16.0 mph 99% 0.04 in 0.00 W/m2
02:54 53.1 °F 52.8 °F 30.11 in SSE 12.0 mph 16.0 mph 99% 0.04 in 0.00 W/m2
02:59 53.1 °F 52.8 °F 30.10 in South 8.0 mph 11.0 mph 99% 0.09 in 0.00 W/m2
03:04 53.1 °F 52.8 °F 30.10 in SSW 11.0 mph 14.0 mph 99% 0.09 in 0.00 W/m2
03:09 53.0 °F 52.7 °F 30.10 in Calm   14.0 mph 99% 0.07 in 0.00 W/m2
03:14 53.0 °F 52.7 °F 30.10 in South 8.0 mph 13.0 mph 99% 0.07 in 0.00 W/m2
03:19 53.0 °F 52.7 °F 30.10 in Calm   14.0 mph 99% 0.06 in 0.00 W/m2
03:24 52.9 °F 52.6 °F 30.10 in South 6.0 mph 11.0 mph 99% 0.06 in 0.00 W/m2
03:29 52.9 °F 52.6 °F 30.10 in South 4.0 mph 8.0 mph 99% 0.05 in 0.00 W/m2
03:34 52.8 °F 52.5 °F 30.10 in South 4.0 mph 10.0 mph 99% 0.04 in 0.00 W/m2
03:39 52.8 °F 52.5 °F 30.09 in SSE 7.0 mph 8.0 mph 99% 0.04 in 0.00 W/m2
03:44 52.8 °F 52.5 °F 30.09 in Calm   7.0 mph 99% 0.04 in 0.00 W/m2
03:49 52.8 °F 52.5 °F 30.09 in Calm     99% 0.00 in 0.00 W/m2
03:54 52.8 °F 52.5 °F 30.08 in Calm     99% 0.00 in 0.00 W/m2
03:59 52.7 °F 52.4 °F 30.08 in Calm     99% 0.00 in 0.00 W/m2
04:04 52.7 °F 52.4 °F 30.08 in Calm     99% 0.00 in 0.00 W/m2
04:09 52.7 °F 52.4 °F 30.07 in Calm     99% 0.00 in 0.00 W/m2
04:14 52.7 °F 52.4 °F 30.07 in Calm     99% 0.00 in 0.00 W/m2
04:19 52.7 °F 52.4 °F 30.08 in SSE 7.0 mph 8.0 mph 99% 0.00 in 0.00 W/m2
04:24 52.7 °F 52.4 °F 30.08 in Calm   8.0 mph 99% 0.00 in 0.00 W/m2
04:29 52.7 °F 52.4 °F 30.08 in SSE 4.0 mph 8.0 mph 99% 0.00 in 0.00 W/m2
04:34 52.7 °F 52.4 °F 30.08 in SSE 2.0 mph 12.0 mph 99% 0.00 in 0.00 W/m2
04:39 52.6 °F 52.3 °F 30.08 in Calm   5.0 mph 99% 0.00 in 0.00 W/m2
04:44 52.6 °F 52.3 °F 30.08 in Calm   6.0 mph 99% 0.00 in 0.00 W/m2
04:49 52.6 °F 52.3 °F 30.08 in Calm     99% 0.05 in 0.00 W/m2
04:54 52.5 °F 52.0 °F 30.08 in Calm     98% 0.09 in 0.00 W/m2
04:59 52.4 °F 51.8 °F 30.08 in Calm     98% 0.09 in 0.00 W/m2
05:04 52.3 °F 51.8 °F 30.08 in SSE 1.0 mph 10.0 mph 98% 0.09 in 0.00 W/m2
05:09 52.2 °F 51.7 °F 30.07 in SSE 4.0 mph 10.0 mph 98% 0.14 in 0.00 W/m2
05:14 52.2 °F 51.9 °F 30.07 in SSE 9.0 mph 14.0 mph 99% 0.12 in 0.00 W/m2
05:19 52.2 °F 51.9 °F 30.07 in SSE 4.0 mph 8.0 mph 99% 0.07 in 0.00 W/m2
05:24 52.3 °F 52.0 °F 30.07 in SSE 7.0 mph 10.0 mph 99% 0.07 in 0.00 W/m2
05:29 52.4 °F 52.1 °F 30.07 in SE 6.0 mph 12.0 mph 99% 0.33 in 0.00 W/m2
05:34 52.6 °F 52.3 °F 30.07 in Calm   11.0 mph 99% 0.21 in 0.00 W/m2
05:39 52.6 °F 52.3 °F 30.07 in South 5.0 mph 10.0 mph 99% 0.23 in 0.00 W/m2
05:45 52.7 °F 52.4 °F 30.07 in South 6.0 mph 16.0 mph 99% 0.88 in 0.00 W/m2
05:50 52.8 °F 52.5 °F 30.07 in South 11.0 mph 13.0 mph 99% 0.40 in 0.00 W/m2
05:55 52.8 °F 52.5 °F 30.07 in South 9.0 mph 12.0 mph 99% 0.18 in 0.00 W/m2
06:00 52.9 °F 52.6 °F 30.07 in Calm   12.0 mph 99% 0.13 in 0.00 W/m2
06:05 53.0 °F 52.7 °F 30.07 in SSE 7.0 mph 19.0 mph 99% 0.08 in 0.00 W/m2
06:10 53.2 °F 52.9 °F 30.07 in SSE 13.0 mph 15.0 mph 99% 0.07 in 0.00 W/m2
06:15 53.2 °F 52.9 °F 30.07 in SSE 8.0 mph 17.0 mph 99% 0.07 in 0.00 W/m2
06:20 53.3 °F 53.0 °F 30.07 in SSW 14.0 mph 17.0 mph 99% 0.10 in 0.00 W/m2
06:25 53.4 °F 53.1 °F 30.07 in South 12.0 mph 24.0 mph 99% 0.14 in 0.00 W/m2
06:30 53.5 °F 53.2 °F 30.08 in SSW 18.0 mph 20.0 mph 99% 0.15 in 0.00 W/m2
06:35 53.6 °F 53.3 °F 30.08 in SSW 9.0 mph 23.0 mph 99% 0.20 in 0.00 W/m2
06:40 53.7 °F 53.4 °F 30.08 in SW 5.0 mph 19.0 mph 99% 0.24 in 0.00 W/m2
06:45 53.7 °F 53.4 °F 30.08 in South 6.0 mph 16.0 mph 99% 0.21 in 0.00 W/m2
06:50 53.7 °F 53.4 °F 30.08 in South 6.0 mph 24.0 mph 99% 0.24 in 0.00 W/m2
06:55 53.8 °F 53.5 °F 30.08 in SSW 7.0 mph 21.0 mph 99% 0.29 in 0.00 W/m2
07:00 53.8 °F 53.5 °F 30.08 in South 4.0 mph 20.0 mph 99% 0.21 in 0.00 W/m2
07:05 53.8 °F 53.5 °F 30.08 in South 6.0 mph 20.0 mph 99% 0.16 in 0.00 W/m2
07:10 53.9 °F 53.6 °F 30.09 in SSW 11.0 mph 19.0 mph 99% 0.07 in 0.00 W/m2
07:15 53.8 °F 53.5 °F 30.08 in SSW 8.0 mph 21.0 mph 99% 0.07 in 0.00 W/m2
07:20 53.9 °F 53.6 °F 30.08 in SSW 13.0 mph 23.0 mph 99% 0.06 in 0.00 W/m2
07:25 53.9 °F 53.6 °F 30.09 in South 14.0 mph 20.0 mph 99% 0.06 in 0.00 W/m2
07:30 53.9 °F 53.6 °F 30.09 in South 7.0 mph 19.0 mph 99% 0.05 in 0.00 W/m2
07:35 53.9 °F 53.6 °F 30.09 in South 5.0 mph 21.0 mph 99% 0.05 in 5.00 W/m2
07:40 53.9 °F 53.6 °F 30.09 in SSW 18.0 mph 24.0 mph 99% 0.20 in 7.00 W/m2
07:45 53.9 °F 53.6 °F 30.10 in South 22.0 mph 25.0 mph 99% 0.19 in 7.00 W/m2
07:50 54.0 °F 53.7 °F 30.09 in South 17.0 mph 24.0 mph 99% 0.18 in 7.00 W/m2
07:55 54.0 °F 53.7 °F 30.10 in SSW 11.0 mph 14.0 mph 99% 0.13 in 7.00 W/m2
08:00 54.0 °F 53.7 °F 30.10 in SSW 8.0 mph 19.0 mph 99% 0.17 in 14.00 W/m2
08:05 54.0 °F 53.7 °F 30.10 in SSW 2.0 mph 17.0 mph 99% 0.19 in 9.00 W/m2
08:10 54.0 °F 53.7 °F 30.10 in SSW 15.0 mph 18.0 mph 99% 0.13 in 11.00 W/m2
08:15 54.0 °F 53.7 °F 30.10 in SSE 16.0 mph 21.0 mph 99% 0.10 in 14.00 W/m2
08:20 54.0 °F 53.7 °F 30.10 in SSW 12.0 mph 15.0 mph 99% 0.06 in 12.00 W/m2
08:25 54.0 °F 53.7 °F 30.10 in SSE 8.0 mph 17.0 mph 99% 0.05 in 12.00 W/m2
08:30 54.0 °F 53.7 °F 30.10 in South 15.0 mph 20.0 mph 99% 0.36 in 18.00 W/m2
08:35 54.0 °F 53.7 °F 30.10 in SE 5.0 mph 19.0 mph 99% 0.09 in 19.00 W/m2
08:40 54.0 °F 53.7 °F 30.10 in SSE 9.0 mph 17.0 mph 99% 0.09 in 16.00 W/m2
08:45 54.1 °F 53.8 °F 30.10 in South 12.0 mph 21.0 mph 99% 0.09 in 12.00 W/m2
08:50 54.1 °F 53.8 °F 30.10 in SSW 9.0 mph 18.0 mph 99% 0.10 in 12.00 W/m2
08:55 54.1 °F 53.8 °F 30.10 in SSW 14.0 mph 22.0 mph 99% 0.25 in 12.00 W/m2
09:00 54.1 °F 53.8 °F 30.10 in SSW 17.0 mph 26.0 mph 99% 0.19 in 14.00 W/m2
09:05 54.1 °F 53.8 °F 30.10 in South 16.0 mph 25.0 mph 99% 0.09 in 18.00 W/m2
09:10 54.2 °F 53.9 °F 30.10 in SSW 15.0 mph 25.0 mph 99% 0.08 in 21.00 W/m2
09:15 54.2 °F 53.9 °F 30.11 in South 8.0 mph 25.0 mph 99% 0.06 in 16.00 W/m2
09:20 54.2 °F 53.9 °F 30.11 in South 5.0 mph 23.0 mph 99% 0.05 in 19.00 W/m2
09:25 54.2 °F 53.9 °F 30.12 in South 9.0 mph 24.0 mph 99% 0.25 in 16.00 W/m2
09:30 54.2 °F 53.9 °F 30.12 in South 9.0 mph 22.0 mph 99% 0.24 in 21.00 W/m2
09:35 54.3 °F 54.0 °F 30.12 in SW 12.0 mph 20.0 mph 99% 0.17 in 19.00 W/m2
09:40 54.2 °F 53.9 °F 30.12 in SSW 9.0 mph 18.0 mph 99% 0.27 in 19.00 W/m2
09:45 54.2 °F 53.9 °F 30.12 in SSW 7.0 mph 22.0 mph 99% 0.33 in 26.00 W/m2
09:50 54.2 °F 53.9 °F 30.13 in SSW 8.0 mph 19.0 mph 99% 0.20 in 23.00 W/m2
09:55 54.2 °F 53.9 °F 30.13 in SSW 14.0 mph 24.0 mph 99% 0.10 in 23.00 W/m2
10:00 54.2 °F 53.9 °F 30.13 in South 8.0 mph 22.0 mph 99% 0.10 in 26.00 W/m2
10:05 54.2 °F 53.9 °F 30.14 in SSW 7.0 mph 21.0 mph 99% 0.18 in 19.00 W/m2
10:10 54.2 °F 53.9 °F 30.15 in South 22.0 mph 24.0 mph 99% 0.14 in 33.00 W/m2
10:15 54.2 °F 53.9 °F 30.15 in SSW 11.0 mph 15.0 mph 99% 0.08 in 32.00 W/m2
10:20 54.2 °F 53.9 °F 30.15 in SSW 20.0 mph 22.0 mph 99% 0.20 in 26.00 W/m2
10:25 54.2 °F 53.9 °F 30.15 in SSW 7.0 mph 23.0 mph 99% 0.09 in 33.00 W/m2
10:30 54.2 °F 53.9 °F 30.15 in SW 13.0 mph 21.0 mph 99% 0.17 in 30.00 W/m2
10:35 54.2 °F 53.9 °F 30.16 in SW 11.0 mph 21.0 mph 99% 0.10 in 32.00 W/m2
10:40 54.2 °F 53.9 °F 30.16 in Calm   20.0 mph 99% 0.05 in 35.00 W/m2
10:45 54.2 °F 53.9 °F 30.16 in SW 16.0 mph 18.0 mph 99% 0.05 in 37.00 W/m2
10:50 54.2 °F 53.9 °F 30.16 in South 11.0 mph 18.0 mph 99% 0.08 in 30.00 W/m2
10:55 54.2 °F 53.9 °F 30.16 in SSW 11.0 mph 22.0 mph 99% 0.09 in 32.00 W/m2
11:00 54.2 °F 53.9 °F 30.16 in Calm   21.0 mph 99% 0.14 in 28.00 W/m2
11:06 54.2 °F 53.9 °F 30.16 in South 12.0 mph 21.0 mph 99% 0.13 in 39.00 W/m2
11:11 54.2 °F 53.9 °F 30.16 in South 12.0 mph 12.0 mph 99% 0.09 in 35.00 W/m2
11:16 54.2 °F 53.9 °F 30.16 in SSW 13.0 mph 15.0 mph 99% 0.14 in 40.00 W/m2
11:21 54.3 °F 54.0 °F 30.15 in South 12.0 mph 14.0 mph 99% 0.14 in 44.00 W/m2
11:26 54.3 °F 54.0 °F 30.16 in SSW 6.0 mph 9.0 mph 99% 0.12 in 42.00 W/m2
11:31 54.3 °F 54.0 °F 30.16 in Calm     99% 0.10 in 21.00 W/m2
11:36 54.3 °F 54.0 °F 30.16 in SSW 12.0 mph 12.0 mph 99% 0.06 in 30.00 W/m2
11:41 54.3 °F 54.0 °F 30.16 in SSW 6.0 mph 6.0 mph 99% 0.19 in 35.00 W/m2
11:46 54.3 °F 54.0 °F 30.15 in South 2.0 mph 5.0 mph 99% 0.17 in 37.00 W/m2
11:51 54.3 °F 54.0 °F 30.15 in SSW 9.0 mph 9.0 mph 99% 0.09 in 35.00 W/m2
11:56 54.3 °F 54.0 °F 30.15 in SSW 8.0 mph 9.0 mph 99% 0.09 in 35.00 W/m2
12:01 54.3 °F 54.0 °F 30.15 in South 12.0 mph 12.0 mph 99% 0.08 in 40.00 W/m2
12:06 54.3 °F 54.0 °F 30.15 in SW 6.0 mph 13.0 mph 99% 0.12 in 44.00 W/m2
12:11 54.3 °F 54.0 °F 30.15 in South 16.0 mph 16.0 mph 99% 0.14 in 40.00 W/m2
12:16 54.3 °F 54.0 °F 30.15 in SW 5.0 mph 14.0 mph 99% 0.17 in 40.00 W/m2
12:21 54.3 °F 54.0 °F 30.15 in WSW 5.0 mph 12.0 mph 99% 0.16 in 49.00 W/m2
12:26 54.3 °F 54.0 °F 30.15 in SSW 7.0 mph 12.0 mph 99% 0.14 in 35.00 W/m2
12:31 54.3 °F 54.0 °F 30.14 in South 10.0 mph 10.0 mph 99% 0.27 in 39.00 W/m2
12:36 54.2 °F 53.9 °F 30.14 in SE 9.0 mph 18.0 mph 99% 0.17 in 30.00 W/m2
12:41 54.3 °F 54.0 °F 30.14 in SE 5.0 mph 12.0 mph 99% 0.19 in 39.00 W/m2
12:46 54.2 °F 53.9 °F 30.14 in SSW 6.0 mph 11.0 mph 99% 0.20 in 35.00 W/m2
12:51 54.2 °F 53.9 °F 30.14 in SSW 7.0 mph 8.0 mph 99% 0.38 in 30.00 W/m2
12:56 54.2 °F 53.9 °F 30.14 in South 7.0 mph 16.0 mph 99% 0.28 in 28.00 W/m2
13:01 54.2 °F 53.9 °F 30.13 in SSE 4.0 mph 14.0 mph 99% 0.33 in 46.00 W/m2
13:06 54.1 °F 53.8 °F 30.12 in SSW 8.0 mph 11.0 mph 99% 0.17 in 37.00 W/m2
13:11 54.1 °F 53.8 °F 30.12 in Calm     99% 0.09 in 28.00 W/m2
13:16 54.1 °F 53.8 °F 30.12 in SSW 11.0 mph 11.0 mph 99% 0.07 in 28.00 W/m2
13:21 54.1 °F 53.8 °F 30.12 in SSW 5.0 mph 12.0 mph 99% 0.08 in 26.00 W/m2
13:26 54.2 °F 53.9 °F 30.11 in SSW 5.0 mph 11.0 mph 99% 0.12 in 49.00 W/m2
13:31 54.2 °F 53.9 °F 30.11 in South 9.0 mph 11.0 mph 99% 0.19 in 23.00 W/m2
13:36 54.2 °F 53.9 °F 30.11 in Calm   2.0 mph 99% 0.76 in 28.00 W/m2
13:41 54.2 °F 53.9 °F 30.11 in South 10.0 mph 12.0 mph 99% 0.34 in 33.00 W/m2
13:46 54.3 °F 54.0 °F 30.11 in SSE 6.0 mph 13.0 mph 99% 0.24 in 30.00 W/m2
13:51 54.4 °F 54.1 °F 30.11 in SSW 6.0 mph 13.0 mph 99% 0.17 in 37.00 W/m2
13:56 54.4 °F 54.1 °F 30.10 in South 10.0 mph 10.0 mph 99% 0.14 in 32.00 W/m2
14:01 54.4 °F 54.1 °F 30.11 in South 9.0 mph 18.0 mph 99% 0.15 in 33.00 W/m2
14:06 54.4 °F 54.1 °F 30.10 in South 6.0 mph 9.0 mph 99% 0.37 in 42.00 W/m2
14:11 54.5 °F 54.2 °F 30.10 in South 4.0 mph 7.0 mph 99% 0.17 in 26.00 W/m2
14:16 54.5 °F 54.2 °F 30.10 in Calm     99% 0.24 in 39.00 W/m2
14:21 54.5 °F 54.2 °F 30.10 in SSE 7.0 mph 12.0 mph 99% 0.13 in 44.00 W/m2
14:26 54.5 °F 54.2 °F 30.10 in South 8.0 mph 11.0 mph 99% 0.12 in 33.00 W/m2
14:32 54.5 °F 54.2 °F 30.10 in SSE 6.0 mph 15.0 mph 99% 0.12 in 35.00 W/m2
14:37 54.6 °F 54.3 °F 30.10 in SSE 8.0 mph 15.0 mph 99% 0.19 in 23.00 W/m2
14:41 54.6 °F 54.3 °F 30.10 in SSW 7.0 mph 18.0 mph 99% 0.19 in 19.00 W/m2
14:46 54.6 °F 54.3 °F 30.10 in SSW 5.0 mph 14.0 mph 99% 0.13 in 32.00 W/m2
14:52 54.6 °F 54.3 °F 30.10 in South 14.0 mph 15.0 mph 99% 0.12 in 25.00 W/m2
14:57 54.6 °F 54.3 °F 30.11 in SSE 20.0 mph 20.0 mph 99% 0.10 in 26.00 W/m2
15:01 54.6 °F 54.3 °F 30.11 in SW 5.0 mph 15.0 mph 99% 0.14 in 26.00 W/m2
15:06 54.6 °F 54.3 °F 30.11 in SW 8.0 mph 14.0 mph 99% 0.13 in 26.00 W/m2
15:11 54.7 °F 54.4 °F 30.12 in SSW 10.0 mph 14.0 mph 99% 0.39 in 14.00 W/m2
15:16 54.7 °F 54.4 °F 30.12 in SSW 7.0 mph 13.0 mph 99% 0.24 in 14.00 W/m2
15:22 54.7 °F 54.4 °F 30.12 in SSW 10.0 mph 11.0 mph 99% 0.13 in 18.00 W/m2
15:26 54.7 °F 54.4 °F 30.12 in South 6.0 mph 9.0 mph 99% 0.08 in 11.00 W/m2
15:32 54.7 °F 54.4 °F 30.12 in South 3.0 mph 11.0 mph 99% 0.08 in 16.00 W/m2
15:37 54.7 °F 54.4 °F 30.12 in South 12.0 mph 13.0 mph 99% 0.10 in 14.00 W/m2
15:42 54.8 °F 54.5 °F 30.12 in South 6.0 mph 8.0 mph 99% 0.08 in 18.00 W/m2
15:46 54.7 °F 54.4 °F 30.12 in South 8.0 mph 8.0 mph 99% 0.09 in 12.00 W/m2
15:52 54.8 °F 54.5 °F 30.11 in SSE 9.0 mph 14.0 mph 99% 0.15 in 11.00 W/m2
15:57 54.8 °F 54.5 °F 30.12 in South 8.0 mph 11.0 mph 99% 0.28 in 11.00 W/m2
16:02 54.8 °F 54.5 °F 30.11 in South 4.0 mph 9.0 mph 99% 0.18 in 9.00 W/m2
16:06 54.8 °F 54.5 °F 30.11 in SSE 9.0 mph 12.0 mph 99% 0.29 in 12.00 W/m2
16:12 54.8 °F 54.5 °F 30.11 in South 6.0 mph 6.0 mph 99% 0.15 in 11.00 W/m2
16:17 54.8 °F 54.5 °F 30.10 in SSW 3.0 mph 8.0 mph 99% 0.20 in 12.00 W/m2
16:22 54.8 °F 54.5 °F 30.10 in SSE 1.0 mph 9.0 mph 99% 0.13 in 11.00 W/m2
16:26 54.8 °F 54.5 °F 30.10 in South 8.0 mph 11.0 mph 99% 0.18 in 11.00 W/m2
16:31 54.8 °F 54.5 °F 30.10 in South 9.0 mph 10.0 mph 99% 0.07 in 7.00 W/m2
16:36 54.9 °F 54.6 °F 30.10 in SSE 11.0 mph 18.0 mph 99% 0.07 in 7.00 W/m2
16:41 54.9 °F 54.6 °F 30.10 in SSE 5.0 mph 16.0 mph 99% 0.06 in 7.00 W/m2
16:46 54.9 °F 54.6 °F 30.10 in SSW 9.0 mph 9.0 mph 99% 0.04 in 5.00 W/m2
16:51 54.9 °F 54.6 °F 30.10 in SSE 12.0 mph 14.0 mph 99% 0.04 in 5.00 W/m2
16:56 54.9 °F 54.6 °F 30.10 in South 7.0 mph 12.0 mph 99% 0.08 in 5.00 W/m2
17:01 54.9 °F 54.6 °F 30.10 in South 2.0 mph 9.0 mph 99% 0.13 in 5.00 W/m2
17:06 54.9 °F 54.6 °F 30.10 in South 12.0 mph 17.0 mph 99% 0.09 in 0.00 W/m2
17:11 55.0 °F 54.7 °F 30.10 in SSE 10.0 mph 18.0 mph 99% 0.05 in 0.00 W/m2
17:16 55.0 °F 54.7 °F 30.10 in SE 11.0 mph 22.0 mph 99% 0.04 in 0.00 W/m2
17:21 55.0 °F 54.7 °F 30.10 in SSE 12.0 mph 18.0 mph 99% 0.00 in 0.00 W/m2
17:26 55.0 °F 54.7 °F 30.10 in SSE 16.0 mph 16.0 mph 99% 0.00 in 0.00 W/m2
17:31 55.0 °F 54.7 °F 30.10 in South 8.0 mph 17.0 mph 99% 0.00 in 0.00 W/m2
17:36 55.0 °F 54.7 °F 30.10 in South 12.0 mph 17.0 mph 99% 0.00 in 0.00 W/m2
17:41 55.0 °F 54.5 °F 30.10 in SSE 8.0 mph 13.0 mph 98% 0.00 in 0.00 W/m2
17:46 55.1 °F 54.5 °F 30.11 in SSE 10.0 mph 13.0 mph 98% 0.00 in 0.00 W/m2
17:51 55.0 °F 54.5 °F 30.11 in SSW 10.0 mph 12.0 mph 98% 0.00 in 0.00 W/m2
17:56 55.1 °F 54.5 °F 30.11 in SSE 5.0 mph 8.0 mph 98% 0.00 in 0.00 W/m2
18:02 55.1 °F 54.5 °F 30.11 in South 9.0 mph 15.0 mph 98% 0.00 in 0.00 W/m2
18:07 55.1 °F 54.5 °F 30.11 in South 10.0 mph 13.0 mph 98% 0.00 in 0.00 W/m2
18:12 55.1 °F 54.5 °F 30.11 in SSE 10.0 mph 12.0 mph 98% 0.00 in 0.00 W/m2
18:17 55.1 °F 54.5 °F 30.11 in SSE 4.0 mph 7.0 mph 98% 0.00 in 0.00 W/m2
18:22 55.1 °F 54.5 °F 30.11 in SSE 7.0 mph 12.0 mph 98% 0.00 in 0.00 W/m2
18:27 55.1 °F 54.5 °F 30.12 in SSE 8.0 mph 10.0 mph 98% 0.00 in 0.00 W/m2
18:32 55.1 °F 54.5 °F 30.12 in SSE 7.0 mph 11.0 mph 98% 0.00 in 0.00 W/m2
18:37 55.1 °F 54.5 °F 30.12 in SE 7.0 mph 10.0 mph 98% 0.00 in 0.00 W/m2
18:42 55.0 °F 54.5 °F 30.11 in SE 8.0 mph 14.0 mph 98% 0.00 in 0.00 W/m2
18:47 55.0 °F 54.5 °F 30.11 in Calm   1.0 mph 98% 0.00 in 0.00 W/m2
18:52 55.0 °F 54.5 °F 30.11 in SSE 11.0 mph 11.0 mph 98% 0.00 in 0.00 W/m2
18:57 55.0 °F 54.5 °F 30.11 in SSE 9.0 mph 13.0 mph 98% 0.00 in 0.00 W/m2
19:02 55.0 °F 54.5 °F 30.12 in SSE 10.0 mph 12.0 mph 98% 0.00 in 0.00 W/m2
19:07 55.0 °F 54.5 °F 30.12 in Calm     98% 0.00 in 0.00 W/m2
19:12 55.0 °F 54.5 °F 30.11 in SSE 8.0 mph 14.0 mph 98% 0.00 in 0.00 W/m2
19:17 55.0 °F 54.5 °F 30.12 in SSE 4.0 mph 8.0 mph 98% 0.00 in 0.00 W/m2
19:22 55.0 °F 54.5 °F 30.12 in SSE 7.0 mph 7.0 mph 98% 0.00 in 0.00 W/m2
19:27 55.0 °F 54.5 °F 30.12 in SSE 1.0 mph 7.0 mph 98% 0.00 in 0.00 W/m2
19:32 55.0 °F 54.5 °F 30.12 in SSE 1.0 mph 9.0 mph 98% 0.00 in 0.00 W/m2
19:37 55.0 °F 54.5 °F 30.12 in Calm     98% 0.00 in 0.00 W/m2
19:42 55.0 °F 54.5 °F 30.12 in South 6.0 mph 8.0 mph 98% 0.00 in 0.00 W/m2
19:47 55.0 °F 54.5 °F 30.12 in South 7.0 mph 8.0 mph 98% 0.00 in 0.00 W/m2
19:52 55.0 °F 54.5 °F 30.12 in SSE 5.0 mph 11.0 mph 98% 0.00 in 0.00 W/m2
19:57 55.0 °F 54.5 °F 30.12 in SSE 5.0 mph 9.0 mph 98% 0.00 in 0.00 W/m2
20:02 55.0 °F 54.5 °F 30.12 in Calm     98% 0.00 in 0.00 W/m2
20:07 55.0 °F 54.5 °F 30.12 in Calm     98% 0.00 in 0.00 W/m2
20:12 55.0 °F 54.5 °F 30.12 in Calm     98% 0.00 in 0.00 W/m2
20:17 54.9 °F 54.3 °F 30.11 in Calm     98% 0.00 in 0.00 W/m2
20:22 54.9 °F 54.3 °F 30.11 in Calm     98% 0.00 in 0.00 W/m2
20:27 54.9 °F 54.3 °F 30.11 in Calm     98% 0.00 in 0.00 W/m2
20:32 54.9 °F 54.3 °F 30.11 in Calm     98% 0.00 in 0.00 W/m2
20:37 54.9 °F 54.3 °F 30.12 in Calm     98% 0.00 in 0.00 W/m2
20:42 54.8 °F 54.2 °F 30.11 in Calm     98% 0.00 in 0.00 W/m2
20:47 54.8 °F 54.2 °F 30.11 in Calm     98% 0.00 in 0.00 W/m2
20:52 54.8 °F 54.2 °F 30.12 in Calm     98% 0.00 in 0.00 W/m2
20:57 54.8 °F 54.2 °F 30.12 in Calm     98% 0.00 in 0.00 W/m2
21:02 54.8 °F 54.2 °F 30.12 in Calm     98% 0.00 in 0.00 W/m2
21:07 54.8 °F 54.2 °F 30.11 in Calm     98% 0.00 in 0.00 W/m2
21:12 54.8 °F 54.2 °F 30.12 in Calm     98% 0.00 in 0.00 W/m2
21:17 54.7 °F 54.2 °F 30.11 in Calm     98% 0.00 in 0.00 W/m2
21:22 54.8 °F 54.2 °F 30.11 in Calm     98% 0.00 in 0.00 W/m2
21:27 54.7 °F 54.2 °F 30.12 in Calm     98% 0.00 in 0.00 W/m2
21:32 54.7 °F 54.2 °F 30.12 in Calm     98% 0.00 in 0.00 W/m2
21:37 54.7 °F 54.2 °F 30.12 in Calm     98% 0.00 in 0.00 W/m2
21:42 54.7 °F 54.2 °F 30.12 in Calm     98% 0.00 in 0.00 W/m2
21:47 54.7 °F 54.2 °F 30.11 in Calm     98% 0.00 in 0.00 W/m2
21:52 54.7 °F 54.2 °F 30.11 in Calm     98% 0.00 in 0.00 W/m2
21:57 54.7 °F 54.2 °F 30.11 in Calm     98% 0.00 in 0.00 W/m2
22:02 54.6 °F 54.0 °F 30.11 in Calm     98% 0.00 in 0.00 W/m2
22:07 54.6 °F 54.0 °F 30.10 in Calm     98% 0.00 in 0.00 W/m2
22:12 54.6 °F 54.0 °F 30.10 in Calm     98% 0.00 in 0.00 W/m2
22:17 54.6 °F 54.0 °F 30.10 in Calm     98% 0.00 in 0.00 W/m2
22:22 54.6 °F 54.0 °F 30.10 in Calm     98% 0.00 in 0.00 W/m2
22:27 54.6 °F 54.0 °F 30.10 in Calm     98% 0.00 in 0.00 W/m2
22:32 54.5 °F 54.0 °F 30.10 in Calm     98% 0.00 in 0.00 W/m2
22:37 54.5 °F 54.0 °F 30.11 in Calm     98% 0.00 in 0.00 W/m2
22:38 54.5 °F 54.0 °F 30.11 in Calm     98% 0.00 in 0.00 W/m2
22:43 54.4 °F 53.8 °F 30.11 in Calm     98% 0.00 in 0.00 W/m2
22:48 54.4 °F 53.8 °F 30.11 in Calm     98% 0.00 in 0.00 W/m2
22:53 54.4 °F 53.8 °F 30.12 in Calm     98% 0.00 in 0.00 W/m2
22:58 54.4 °F 53.8 °F 30.12 in Calm     98% 0.00 in 0.00 W/m2
23:03 54.4 °F 53.8 °F 30.12 in Calm     98% 0.00 in 0.00 W/m2
23:08 54.4 °F 53.8 °F 30.12 in Calm     98% 0.00 in 0.00 W/m2
23:13 54.4 °F 53.8 °F 30.12 in South 1.0 mph 1.0 mph 98% 0.00 in 0.00 W/m2
23:18 54.4 °F 53.8 °F 30.12 in Calm     98% 0.00 in 0.00 W/m2
23:23 54.4 °F 53.8 °F 30.12 in Calm   1.0 mph 98% 0.00 in 0.00 W/m2
23:28 54.4 °F 53.8 °F 30.12 in Calm   7.0 mph 98% 0.00 in 0.00 W/m2
23:33 54.5 °F 54.0 °F 30.13 in SSW 7.0 mph 10.0 mph 98% 0.00 in 0.00 W/m2
23:38 54.5 °F 54.0 °F 30.12 in Calm     98% 0.00 in 0.00 W/m2
23:43 54.5 °F 54.0 °F 30.12 in Calm   8.0 mph 98% 0.00 in 0.00 W/m2
23:48 54.5 °F 54.0 °F 30.12 in SSW 9.0 mph 11.0 mph 98% 0.00 in 0.00 W/m2
23:53 54.5 °F 54.0 °F 30.12 in Calm     98% 0.00 in 0.00 W/m2
23:58 54.5 °F 54.0 °F 30.12 in SSE 7.0 mph 11.0 mph 98% 0.00 in 0.00 W/m2
Foresthill Weather
 WU-history PHP script courtesy of   Juneau County Weather.
powered by Cumulus v1.9.3 (1059)
Ambient Weather VWS v14.00
Top Contact Website Map Copyright © 2007 - 2018 Foresthillweather.com Never base important decisions on this or any weather information obtained from the Internet